createdAt,value
2019-02-08T00:01:07.292Z,8.29
2019-02-08T00:03:36.547Z,8.11
2019-02-08T00:06:06.102Z,7.99
2019-02-08T00:08:35.627Z,8.07
2019-02-08T00:11:06.176Z,8.11
2019-02-08T00:13:36.461Z,8.22
2019-02-08T00:16:05.775Z,8.18
2019-02-08T00:18:35.433Z,8.03
2019-02-08T00:21:05.959Z,8.02
2019-02-08T00:23:35.401Z,8.06
2019-02-08T00:26:04.844Z,7.86
2019-02-08T00:28:34.257Z,7.99
2019-02-08T00:31:03.677Z,8.01
2019-02-08T00:33:33.195Z,7.89
2019-02-08T00:36:03.067Z,7.90
2019-02-08T00:38:32.568Z,8.07
2019-02-08T00:41:01.847Z,7.99
2019-02-08T00:43:31.304Z,7.88
2019-02-08T00:46:00.822Z,7.87
2019-02-08T00:48:30.075Z,7.88
2019-02-08T00:50:59.531Z,7.97
2019-02-08T00:53:33.379Z,7.94
2019-02-08T00:55:59.863Z,7.89
2019-02-08T00:58:29.213Z,7.91
2019-02-08T01:00:58.795Z,7.72
2019-02-08T01:03:28.229Z,7.66
2019-02-08T01:05:57.652Z,7.67
2019-02-08T01:08:26.897Z,7.81
2019-02-08T01:10:57.055Z,7.74
2019-02-08T01:13:26.281Z,7.60
2019-02-08T01:15:55.534Z,7.74
2019-02-08T01:18:24.768Z,7.64
2019-02-08T01:20:54.073Z,7.58
2019-02-08T01:23:23.570Z,7.51
2019-02-08T01:25:52.824Z,7.64
2019-02-08T01:28:22.127Z,7.62
2019-02-08T01:30:51.372Z,7.61
2019-02-08T01:33:20.656Z,7.49
2019-02-08T01:35:49.901Z,7.51
2019-02-08T01:38:19.134Z,7.42
2019-02-08T01:40:49.393Z,7.45
2019-02-08T01:43:18.654Z,7.49
2019-02-08T01:45:47.899Z,7.13
2019-02-08T01:48:17.128Z,7.05
2019-02-08T01:50:46.400Z,7.07
2019-02-08T01:53:15.637Z,7.06
2019-02-08T01:55:44.915Z,7.22
2019-02-08T01:58:14.147Z,7.04
2019-02-08T02:00:44.476Z,7.07
2019-02-08T02:03:13.862Z,7.09
2019-02-08T02:05:44.112Z,6.85
2019-02-08T02:08:13.345Z,6.96
2019-02-08T02:10:44.979Z,6.82
2019-02-08T02:13:14.184Z,6.89
2019-02-08T02:15:44.436Z,6.79
2019-02-08T02:18:13.924Z,6.79
2019-02-08T02:20:44.642Z,7.04
2019-02-08T02:23:15.417Z,7.02
2019-02-08T02:25:45.398Z,6.97
2019-02-08T02:28:14.649Z,6.97
2019-02-08T02:30:43.969Z,6.92
2019-02-08T02:33:14.018Z,6.82
2019-02-08T02:35:43.325Z,7.02
2019-02-08T02:38:12.569Z,7.14
2019-02-08T02:40:42.780Z,6.86
2019-02-08T02:43:12.184Z,6.96
2019-02-08T02:45:41.488Z,6.86
2019-02-08T02:48:13.213Z,6.91
2019-02-08T02:50:42.549Z,6.88
2019-02-08T02:53:12.416Z,6.98
2019-02-08T02:55:42.592Z,7.04
2019-02-08T02:58:11.853Z,6.89
2019-02-08T03:00:43.711Z,6.93
2019-02-08T03:03:14.245Z,6.85
2019-02-08T03:05:43.580Z,6.92
2019-02-08T03:08:15.147Z,6.92
2019-02-08T03:10:45.614Z,7.14
2019-02-08T03:13:14.937Z,7.04
2019-02-08T03:15:44.229Z,7.00
2019-02-08T03:18:13.455Z,6.96
2019-02-08T03:20:43.691Z,6.83
2019-02-08T03:23:14.085Z,6.81
2019-02-08T03:25:43.324Z,6.76
2019-02-08T03:28:12.558Z,6.88
2019-02-08T03:30:44.385Z,7.03
2019-02-08T03:33:13.633Z,6.86
2019-02-08T03:35:42.876Z,6.90
2019-02-08T03:38:12.094Z,6.99
2019-02-08T03:40:41.368Z,7.04
2019-02-08T03:43:11.672Z,6.94
2019-02-08T03:45:42.603Z,6.89
2019-02-08T03:48:12.180Z,6.91
2019-02-08T03:50:41.432Z,6.90
2019-02-08T03:53:11.901Z,6.93
2019-02-08T03:55:41.164Z,6.87
2019-02-08T03:58:10.547Z,6.95
2019-02-08T04:00:41.512Z,6.87
2019-02-08T04:03:10.809Z,7.01
2019-02-08T04:05:40.061Z,6.95
2019-02-08T04:08:09.300Z,7.07
2019-02-08T04:10:38.616Z,7.05
2019-02-08T04:13:08.858Z,6.98
2019-02-08T04:15:39.121Z,7.00
2019-02-08T04:18:08.434Z,7.06
2019-02-08T04:20:37.691Z,7.11
2019-02-08T04:23:06.933Z,7.28
2019-02-08T04:25:36.151Z,7.26
2019-02-08T04:28:05.849Z,7.30
2019-02-08T04:30:36.084Z,7.29
2019-02-08T04:33:05.805Z,7.31
2019-02-08T04:35:35.020Z,7.38
2019-02-08T04:38:04.391Z,7.41
2019-02-08T04:40:35.534Z,7.40
2019-02-08T04:43:05.838Z,7.37
2019-02-08T04:45:35.149Z,7.43
2019-02-08T04:48:04.546Z,7.38
2019-02-08T04:50:33.794Z,7.41
2019-02-08T04:53:03.108Z,7.37
2019-02-08T04:55:32.455Z,7.50
2019-02-08T04:58:01.687Z,7.27
2019-02-08T05:00:33.422Z,7.22
2019-02-08T05:03:02.901Z,7.22
2019-02-08T05:05:33.196Z,7.26
2019-02-08T05:08:02.458Z,7.15
2019-02-08T05:10:33.535Z,7.34
2019-02-08T05:13:02.795Z,7.12
2019-02-08T05:15:32.057Z,7.19
2019-02-08T05:18:01.311Z,7.21
2019-02-08T05:20:37.021Z,7.17
2019-02-08T05:23:06.276Z,7.15
2019-02-08T05:25:35.558Z,7.17
2019-02-08T05:28:05.056Z,7.20
2019-02-08T05:30:35.849Z,7.20
2019-02-08T05:33:05.651Z,7.24
2019-02-08T05:35:35.021Z,7.21
2019-02-08T05:38:04.585Z,7.25
2019-02-08T05:40:33.855Z,7.21
2019-02-08T05:43:03.079Z,7.20
2019-02-08T05:45:32.382Z,7.42
2019-02-08T05:48:01.641Z,7.19
2019-02-08T05:50:31.859Z,7.13
2019-02-08T05:53:02.058Z,7.17
2019-02-08T05:55:32.161Z,7.44
2019-02-08T05:58:01.477Z,7.21
2019-02-08T06:00:35.692Z,7.13
2019-02-08T06:03:07.631Z,7.11
2019-02-08T06:05:37.601Z,7.15
2019-02-08T06:08:07.688Z,7.16
2019-02-08T06:10:37.990Z,7.19
2019-02-08T06:13:08.272Z,7.25
2019-02-08T06:15:40.975Z,7.27
2019-02-08T06:18:10.790Z,7.27
2019-02-08T06:20:40.214Z,7.35
2019-02-08T06:23:09.580Z,7.25
2019-02-08T06:25:38.812Z,7.32
2019-02-08T06:28:09.046Z,7.22
2019-02-08T06:30:41.341Z,7.26
2019-02-08T06:33:10.651Z,7.24
2019-02-08T06:35:39.884Z,7.37
2019-02-08T06:38:09.171Z,7.46
2019-02-08T06:40:41.070Z,7.34
2019-02-08T06:43:12.227Z,7.38
2019-02-08T06:45:41.626Z,7.34
2019-02-08T06:48:11.587Z,7.44
2019-02-08T06:50:40.921Z,7.51
2019-02-08T06:53:10.218Z,7.50
2019-02-08T06:55:39.475Z,7.57
2019-02-08T06:58:11.477Z,7.58
2019-02-08T07:00:42.351Z,7.65
2019-02-08T07:03:16.186Z,7.58
2019-02-08T07:05:55.556Z,7.61
2019-02-08T07:08:41.287Z,7.77
2019-02-08T07:11:20.824Z,7.62
2019-02-08T07:14:10.151Z,7.68
2019-02-08T07:16:43.999Z,7.63
2019-02-08T07:19:30.035Z,7.66
2019-02-08T07:22:16.135Z,7.62
2019-02-08T07:24:49.702Z,7.85
2019-02-08T07:27:26.067Z,7.70
2019-02-08T07:30:00.551Z,7.62
2019-02-08T07:32:31.422Z,7.65
2019-02-08T07:35:02.552Z,7.69
2019-02-08T07:37:52.727Z,7.62
2019-02-08T07:40:29.914Z,7.74
2019-02-08T07:43:09.010Z,7.74
2019-02-08T07:45:54.930Z,7.66
2019-02-08T07:48:34.955Z,7.73
2019-02-08T07:51:17.832Z,7.69
2019-02-08T07:54:05.688Z,7.70
2019-02-08T07:56:37.589Z,7.92
2019-02-08T07:59:13.938Z,8.33
2019-02-08T08:01:50.546Z,8.06
2019-02-08T08:04:24.096Z,8.01
2019-02-08T08:06:57.984Z,7.86
2019-02-08T08:09:32.314Z,7.89
2019-02-08T08:12:19.523Z,7.96
2019-02-08T08:14:56.565Z,8.09
2019-02-08T08:17:27.419Z,7.97
2019-02-08T08:20:12.890Z,7.95
2019-02-08T08:22:47.506Z,8.06
2019-02-08T08:25:25.610Z,8.02
2019-02-08T08:27:56.482Z,7.98
2019-02-08T08:30:29.508Z,7.96
2019-02-08T08:33:02.011Z,8.01
2019-02-08T08:35:44.511Z,8.00
2019-02-08T08:38:22.754Z,8.00
2019-02-08T08:40:58.931Z,8.04
2019-02-08T08:43:36.870Z,7.98
2019-02-08T08:46:19.093Z,7.95
2019-02-08T08:48:57.517Z,7.98
2019-02-08T08:51:39.804Z,7.95
2019-02-08T08:54:31.191Z,8.02
2019-02-08T08:57:07.935Z,7.99
2019-02-08T09:00:04.992Z,8.06
2019-02-08T09:03:02.131Z,7.98
2019-02-08T09:06:08.490Z,8.08
2019-02-08T09:08:38.796Z,8.07
2019-02-08T09:11:33.467Z,8.13
2019-02-08T09:14:11.435Z,8.13
2019-02-08T09:17:06.477Z,8.15
2019-02-08T09:20:07.447Z,8.12
2019-02-08T09:22:39.886Z,8.11
2019-02-08T09:25:38.879Z,8.06
2019-02-08T09:28:12.315Z,8.25
2019-02-08T09:30:57.604Z,8.25
2019-02-08T09:33:36.372Z,8.19
2019-02-08T09:36:24.026Z,8.30
2019-02-08T09:39:23.285Z,8.35
2019-02-08T09:42:07.382Z,8.39
2019-02-08T09:45:08.431Z,8.34
2019-02-08T09:47:40.889Z,8.38
2019-02-08T09:50:28.232Z,8.40
2019-02-08T09:53:22.916Z,8.53
2019-02-08T09:56:11.987Z,8.62
2019-02-08T09:59:00.465Z,8.65
2019-02-08T10:01:32.874Z,8.61
2019-02-08T10:04:26.301Z,8.66
2019-02-08T10:07:22.274Z,8.77
2019-02-08T10:09:54.770Z,8.87
2019-02-08T10:12:57.014Z,8.81
2019-02-08T10:15:48.333Z,8.88
2019-02-08T10:18:37.026Z,8.85
2019-02-08T10:21:29.804Z,8.98
2019-02-08T10:24:14.354Z,8.96
2019-02-08T10:27:19.231Z,8.96
2019-02-08T10:30:15.639Z,8.97
2019-02-08T10:33:13.408Z,8.97
2019-02-08T10:36:00.889Z,8.96
2019-02-08T10:38:54.127Z,8.94
2019-02-08T10:41:45.544Z,9.02
2019-02-08T10:44:35.172Z,9.02
2019-02-08T10:47:34.020Z,8.98
2019-02-08T10:50:28.246Z,9.13
2019-02-08T10:53:20.776Z,9.05
2019-02-08T10:56:15.791Z,9.04
2019-02-08T10:59:20.822Z,9.08
2019-02-08T11:02:16.659Z,9.06
2019-02-08T11:05:12.747Z,9.13
2019-02-08T11:08:10.351Z,9.19
2019-02-08T11:11:06.641Z,9.23
2019-02-08T11:13:56.730Z,9.32
2019-02-08T11:16:48.296Z,9.30
2019-02-08T11:19:16.849Z,9.35
2019-02-08T11:21:47.255Z,9.32
2019-02-08T11:24:18.359Z,9.36
2019-02-08T11:26:47.917Z,9.31
2019-02-08T11:29:17.470Z,9.32
2019-02-08T11:31:47.716Z,9.34
2019-02-08T11:34:17.312Z,9.35
2019-02-08T11:36:46.871Z,9.39
2019-02-08T11:39:16.782Z,9.50
2019-02-08T11:41:46.539Z,9.49
2019-02-08T11:44:16.077Z,9.48
2019-02-08T11:46:45.606Z,9.49
2019-02-08T11:49:15.234Z,9.51
2019-02-08T11:51:44.930Z,9.49
2019-02-08T11:54:14.266Z,9.54
2019-02-08T11:56:43.510Z,9.53
2019-02-08T11:59:12.792Z,9.54
2019-02-08T12:01:42.716Z,9.63
2019-02-08T12:04:12.331Z,9.62
2019-02-08T12:06:41.944Z,9.61
2019-02-08T12:09:12.490Z,9.56
2019-02-08T12:11:41.757Z,9.54
2019-02-08T12:14:11.990Z,9.60
2019-02-08T12:16:43.854Z,9.59
2019-02-08T12:19:13.319Z,9.55
2019-02-08T12:21:42.546Z,9.55
2019-02-08T12:24:12.262Z,9.56
2019-02-08T12:26:41.485Z,9.52
2019-02-08T12:29:11.044Z,9.51
2019-02-08T12:31:40.282Z,9.48
2019-02-08T12:34:09.810Z,9.51
2019-02-08T12:36:39.989Z,9.47
2019-02-08T12:39:11.144Z,9.41
2019-02-08T12:41:40.397Z,9.49
2019-02-08T12:44:10.005Z,9.48
2019-02-08T12:46:39.346Z,9.52
2019-02-08T12:49:08.769Z,9.49
2019-02-08T12:51:38.953Z,9.56
2019-02-08T12:54:08.205Z,9.63
2019-02-08T12:56:45.205Z,9.62
2019-02-08T12:59:09.622Z,9.67
2019-02-08T13:01:39.164Z,9.78
2019-02-08T13:04:08.480Z,9.90
2019-02-08T13:06:37.962Z,9.94
2019-02-08T13:09:09.500Z,9.93
2019-02-08T13:11:38.942Z,9.89
2019-02-08T13:14:08.424Z,9.97
2019-02-08T13:16:37.755Z,9.94
2019-02-08T13:19:07.151Z,9.89
2019-02-08T13:21:36.832Z,10.03
2019-02-08T13:24:07.108Z,10.12
2019-02-08T13:26:36.351Z,10.01
2019-02-08T13:29:05.660Z,10.02
2019-02-08T13:31:34.971Z,10.03
2019-02-08T13:34:04.637Z,10.03
2019-02-08T13:36:35.211Z,9.98
2019-02-08T13:39:06.891Z,10.03
2019-02-08T13:41:36.513Z,10.00
2019-02-08T13:44:05.941Z,10.06
2019-02-08T13:46:35.167Z,10.14
2019-02-08T13:49:04.418Z,10.16
2019-02-08T13:51:34.720Z,10.25
2019-02-08T13:54:04.804Z,10.30
2019-02-08T13:56:34.058Z,10.40
2019-02-08T13:59:05.383Z,10.35
2019-02-08T14:01:35.537Z,10.37
2019-02-08T14:04:04.973Z,10.24
2019-02-08T14:06:34.473Z,10.26
2019-02-08T14:09:05.633Z,10.25
2019-02-08T14:11:34.931Z,10.20
2019-02-08T14:14:04.778Z,10.15
2019-02-08T14:16:34.075Z,10.14
2019-02-08T14:19:03.403Z,10.17
2019-02-08T14:21:34.668Z,10.22
2019-02-08T14:24:03.909Z,10.23
2019-02-08T14:26:33.137Z,10.01
2019-02-08T14:29:03.392Z,9.83
2019-02-08T14:31:32.639Z,9.71
2019-02-08T14:34:02.188Z,9.69
2019-02-08T14:36:31.428Z,9.61
2019-02-08T14:39:00.749Z,9.63
2019-02-08T14:41:33.682Z,9.70
2019-02-08T14:44:02.965Z,9.62
2019-02-08T14:46:36.282Z,9.50
2019-02-08T14:49:05.702Z,9.55
2019-02-08T14:51:35.340Z,9.51
2019-02-08T14:54:06.897Z,9.43
2019-02-08T14:56:36.176Z,9.46
2019-02-08T14:59:05.595Z,9.47
2019-02-08T15:01:35.734Z,9.54
2019-02-08T15:04:07.471Z,9.46
2019-02-08T15:06:36.689Z,9.49
2019-02-08T15:09:08.546Z,9.44
2019-02-08T15:11:38.713Z,9.46
2019-02-08T15:14:08.305Z,9.38
2019-02-08T15:16:38.522Z,9.47
2019-02-08T15:19:07.761Z,9.44
2019-02-08T15:21:37.088Z,9.39
2019-02-08T15:24:06.584Z,9.48
2019-02-08T15:26:36.142Z,9.50
2019-02-08T15:29:05.557Z,9.42
2019-02-08T15:31:34.888Z,9.48
2019-02-08T15:34:05.752Z,9.38
2019-02-08T15:36:35.002Z,9.44
2019-02-08T15:39:07.506Z,9.49
2019-02-08T15:41:36.769Z,9.47
2019-02-08T15:44:06.118Z,9.44
2019-02-08T15:46:35.419Z,9.48
2019-02-08T15:49:04.724Z,9.46
2019-02-08T15:51:34.284Z,9.48
2019-02-08T15:54:03.636Z,9.43
2019-02-08T15:56:32.998Z,9.46
2019-02-08T15:59:02.331Z,9.44
2019-02-08T16:01:31.578Z,9.51
2019-02-08T16:04:00.817Z,9.45
2019-02-08T16:06:30.239Z,9.50
2019-02-08T16:08:59.495Z,9.61
2019-02-08T16:11:28.805Z,9.59
2019-02-08T16:14:00.087Z,9.54
2019-02-08T16:16:29.632Z,9.54
2019-02-08T16:18:58.882Z,9.54
2019-02-08T16:21:28.097Z,9.59
2019-02-08T16:23:59.515Z,9.64
2019-02-08T16:26:30.132Z,9.69
2019-02-08T16:28:59.469Z,9.72
2019-02-08T16:31:28.929Z,9.71
2019-02-08T16:33:59.405Z,9.74
2019-02-08T16:36:28.818Z,9.81
2019-02-08T16:38:59.099Z,9.79
2019-02-08T16:41:28.325Z,9.92
2019-02-08T16:43:57.643Z,9.87
2019-02-08T16:46:28.263Z,9.91
2019-02-08T16:48:57.506Z,9.90
2019-02-08T16:51:27.778Z,9.94
2019-02-08T16:53:57.043Z,9.95
2019-02-08T16:56:26.323Z,9.96
2019-02-08T16:58:55.629Z,10.00
2019-02-08T17:01:24.925Z,9.93
2019-02-08T17:03:54.232Z,10.01
2019-02-08T17:06:23.540Z,9.97
2019-02-08T17:08:52.768Z,10.02
2019-02-08T17:11:22.023Z,10.01
2019-02-08T17:13:51.255Z,9.99
2019-02-08T17:16:20.584Z,9.93
2019-02-08T17:18:49.829Z,10.01
2019-02-08T17:21:19.172Z,10.03
2019-02-08T17:23:48.413Z,10.02
2019-02-08T17:26:18.736Z,9.99
2019-02-08T17:28:47.975Z,10.06
2019-02-08T17:31:17.231Z,10.02
2019-02-08T17:33:46.469Z,10.04
2019-02-08T17:36:15.729Z,9.98
2019-02-08T17:38:44.981Z,9.98
2019-02-08T17:41:15.227Z,9.96
2019-02-08T17:43:44.464Z,9.95
2019-02-08T17:46:13.726Z,9.96
2019-02-08T17:48:44.873Z,9.93
2019-02-08T17:51:14.114Z,9.94
2019-02-08T17:53:44.314Z,10.07
2019-02-08T17:56:13.550Z,9.97
2019-02-08T17:58:42.792Z,9.96
2019-02-08T18:01:13.049Z,9.96
2019-02-08T18:03:42.291Z,9.96
2019-02-08T18:06:12.586Z,9.91
2019-02-08T18:08:41.779Z,9.93
2019-02-08T18:11:13.020Z,9.94
2019-02-08T18:13:42.267Z,9.88
2019-02-08T18:16:11.490Z,9.84
2019-02-08T18:18:40.802Z,9.89
2019-02-08T18:21:10.035Z,9.91
2019-02-08T18:23:39.309Z,9.86
2019-02-08T18:26:09.516Z,9.85
2019-02-08T18:28:38.756Z,9.85
2019-02-08T18:31:08.004Z,9.93
2019-02-08T18:33:37.269Z,9.92
2019-02-08T18:36:06.510Z,9.97
2019-02-08T18:38:35.746Z,9.98
2019-02-08T18:41:05.064Z,9.92
2019-02-08T18:43:34.292Z,9.91
2019-02-08T18:46:07.549Z,9.96
2019-02-08T18:48:36.803Z,9.97
2019-02-08T18:51:06.024Z,9.98
2019-02-08T18:53:35.260Z,10.02
2019-02-08T18:56:04.564Z,10.02
2019-02-08T18:58:33.811Z,10.02
2019-02-08T19:01:03.022Z,9.92
2019-02-08T19:03:32.293Z,9.97
2019-02-08T19:06:01.501Z,10.02
2019-02-08T19:08:32.648Z,10.02
2019-02-08T19:11:01.894Z,10.05
2019-02-08T19:13:31.106Z,10.02
2019-02-08T19:16:00.429Z,10.01
2019-02-08T19:18:29.832Z,9.97
2019-02-08T19:21:00.072Z,9.98
2019-02-08T19:23:29.331Z,10.06
2019-02-08T19:25:58.587Z,9.93
2019-02-08T19:28:28.786Z,9.90
2019-02-08T19:30:58.043Z,9.94
2019-02-08T19:33:27.287Z,9.93
2019-02-08T19:35:56.546Z,9.95
2019-02-08T19:38:25.769Z,9.98
2019-02-08T19:40:55.026Z,9.93
2019-02-08T19:43:24.378Z,9.92
2019-02-08T19:45:53.677Z,9.88
2019-02-08T19:48:22.926Z,9.88
2019-02-08T19:50:52.194Z,9.81
2019-02-08T19:53:21.545Z,9.80
2019-02-08T19:55:50.785Z,9.89
2019-02-08T19:58:20.016Z,9.82
2019-02-08T20:00:49.281Z,9.84
2019-02-08T20:03:20.388Z,9.82
2019-02-08T20:05:49.642Z,9.80
2019-02-08T20:08:18.979Z,9.84
2019-02-08T20:10:51.143Z,9.79
2019-02-08T20:13:20.379Z,9.79
2019-02-08T20:15:49.634Z,9.79
2019-02-08T20:18:18.868Z,9.72
2019-02-08T20:20:48.178Z,9.73
2019-02-08T20:23:17.375Z,9.67
2019-02-08T20:25:46.631Z,9.71
2019-02-08T20:28:16.849Z,9.73
2019-02-08T20:30:47.045Z,9.71
2019-02-08T20:33:16.353Z,9.68
2019-02-08T20:35:49.625Z,9.69
2019-02-08T20:38:19.882Z,9.71
2019-02-08T20:40:50.795Z,9.66
2019-02-08T20:43:21.057Z,9.67
2019-02-08T20:45:50.273Z,9.71
2019-02-08T20:48:21.473Z,9.71
2019-02-08T20:50:50.974Z,9.65
2019-02-08T20:53:20.699Z,9.71
2019-02-08T20:55:50.148Z,9.69
2019-02-08T20:58:20.583Z,9.68
2019-02-08T21:00:51.693Z,9.69
2019-02-08T21:03:22.455Z,9.63
2019-02-08T21:05:51.924Z,9.69
2019-02-08T21:08:21.565Z,9.64
2019-02-08T21:10:51.101Z,9.65
2019-02-08T21:13:23.900Z,9.63
2019-02-08T21:15:53.329Z,9.65
2019-02-08T21:18:23.801Z,9.68
2019-02-08T21:20:53.299Z,9.73
2019-02-08T21:23:23.206Z,9.63
2019-02-08T21:25:53.616Z,9.69
2019-02-08T21:28:23.266Z,9.69
2019-02-08T21:30:54.325Z,9.66
2019-02-08T21:33:24.959Z,9.71
2019-02-08T21:35:54.609Z,9.67
2019-02-08T21:38:25.657Z,9.66
2019-02-08T21:40:55.245Z,9.68
2019-02-08T21:43:24.670Z,9.71
2019-02-08T21:45:54.294Z,9.69
2019-02-08T21:48:23.735Z,9.67
2019-02-08T21:50:53.340Z,9.67
2019-02-08T21:53:22.753Z,9.68
2019-02-08T21:55:52.519Z,9.63
2019-02-08T21:58:22.068Z,9.63
2019-02-08T22:00:51.593Z,9.49
2019-02-08T22:03:21.118Z,9.32
2019-02-08T22:05:53.685Z,9.32
2019-02-08T22:08:23.350Z,9.26
2019-02-08T22:10:52.903Z,9.17
2019-02-08T22:13:23.347Z,9.14
2019-02-08T22:15:52.918Z,9.17
2019-02-08T22:18:22.424Z,9.23
2019-02-08T22:20:52.018Z,9.30
2019-02-08T22:23:21.580Z,9.18
2019-02-08T22:25:51.185Z,9.05
2019-02-08T22:28:20.595Z,8.92
2019-02-08T22:30:51.076Z,8.88
2019-02-08T22:33:20.566Z,8.89
2019-02-08T22:35:51.040Z,8.85
2019-02-08T22:38:22.768Z,8.80
2019-02-08T22:40:53.621Z,8.78
2019-02-08T22:43:23.160Z,8.84
2019-02-08T22:45:52.751Z,8.84
2019-02-08T22:48:22.253Z,8.74
2019-02-08T22:50:51.679Z,8.74
2019-02-08T22:53:21.235Z,8.77
2019-02-08T22:55:50.644Z,8.75
2019-02-08T22:58:20.179Z,8.73
2019-02-08T23:00:55.887Z,8.70
2019-02-08T23:03:25.500Z,8.72
2019-02-08T23:05:55.036Z,8.68
2019-02-08T23:08:24.568Z,8.71
2019-02-08T23:10:55.711Z,8.58
2019-02-08T23:13:25.309Z,8.63
2019-02-08T23:15:54.896Z,8.59
2019-02-08T23:18:24.239Z,8.51
2019-02-08T23:20:53.614Z,8.51
2019-02-08T23:23:22.990Z,8.49
2019-02-08T23:25:52.584Z,8.41
2019-02-08T23:28:21.951Z,8.39
2019-02-08T23:30:51.420Z,8.26
2019-02-08T23:33:20.864Z,8.31
2019-02-08T23:35:50.249Z,8.25
2019-02-08T23:38:19.506Z,8.20
2019-02-08T23:40:48.732Z,8.22
2019-02-08T23:43:18.895Z,8.18
2019-02-08T23:45:48.148Z,8.18
2019-02-08T23:48:17.394Z,8.12
2019-02-08T23:50:47.542Z,8.14
2019-02-08T23:53:16.841Z,8.10
2019-02-08T23:55:46.074Z,8.13
2019-02-08T23:58:16.235Z,8.19
